Airfield :
LOGIN :

Register | Disclaimer

   EN    FR    IT 

 










Legend :    VFR   Marginal VFR   IFR   Intensive IFR   Very Intensive IFR
Visi :
Ceiling :
>= 8 km
>= 3000ft
5 to 8 km
1000 to 3000 ft
1500m to 5 km
500 to 1000 ft
800 to 1500m
200 to 500 ft
< 800m
< 200 ft
Symbols :   Thunderstorms  Fog  Heavy snow  Heavy precipitations  Wind > 20 kt
SIGMETs :     Misc.  Thunderstorms  Icing  Turbulence  Mountain Waves  Volcanic Ashes






- Airport Elevation : 90 ft
- IATA code : NTE


LFRS - Nantes

CURRENT METAR :
  • 241300Z AUTO 05006KT 3600 BR FEW006 BKN066 OVC082 06/05 Q1020 TEMPO 9999 NSW BKN012

EXPIRED METARs :
  • 241230Z AUTO 05006KT 3400 BR FEW006 BKN025 BKN038 06/05 Q1020 TEMPO 9999 NSW BKN012
  • 241200Z AUTO 04005KT 010V070 2900 BR BKN005 OVC054 05/04 Q1021 TEMPO 9999 NSW BKN012
  • 241130Z AUTO 04005KT 010V070 2800 BR OVC005 04/04 Q1021 TEMPO 9999 NSW BKN012
  • 241100Z AUTO 06005KT 030V090 2600 BR OVC005 04/04 Q1021 TEMPO 9999 NSW BKN012
  • 241030Z AUTO 04004KT 2100 BR OVC004 03/03 Q1021 TEMPO 9999 NSW BKN012

TAF AMD TAF LFRS
Valid from the 24 at 12:00 until the 25 at 18:00 UTC


241247Z 2412/2518 06005KT 4000 BR BKN006
TEMPO 2412/2414 2000 -DZRA BKN002
PROB30
TEMPO 2412/2416 9999 NSW SCT006 BKN025
BECMG 2416/2418 2000 BR OVC002
TEMPO 2418/2512 0600 FG VV///
ATIS : +33 2 40 05 12 74



MET'MAP, your aeronautical weather chart ! - Copyright ORBIFLY December 2007 - Disclaimer

ORBIFLY MET'MAP TEAM :

Programming & Development : Alexandra Zaïnal
Concept & original design : Baudouin d'Aumeries
Assistance for programming : Marc-Olivier Méhu
Technical & hardware support : Manuel Goepfert

Contact : metmap@orbifly.com




SOURCES & CREDITS :

   NOAA